Coal Creek, Washington
Current Conditions -  °F | °C
As of 9:53 PM on Wednesday 17 Dec 2014 (Local Time) from KRNT Reporting Station
Light Rain Light Rain  
Wind Chill: 46°   Ceiling: 4400
Heat Index: 46°   Visibility: 4mi
Dew Point: 45°   Wind: 0mph
Humidity: 96%   Direction: NA
Pressure: 29.91"   Gusts: NA
Location:  47.4953°N, 121.984°W
Report Text: KRNT 180553Z AUTO 00000KT 4SM -RA BR OVC044 08/07 A2991 RMK AO2 RAE17B33 SLP135 P0000 60001 T00780072 10089 20078 51005
Loading
Personal Weather Stations






























Interactive Weather Map New forecast layout! Learn more

10-Day Weather Forecast

Advertisements
Track Severe Weather on mobile